N770PA KPIE-KLAL
Flight info
| Callsign | N770PA |
|---|---|
| Flight time | 0h 14m |
| Altitude | VFR/015 |
| Route | VFR E |
| Aircraft | A109/L-DOV/C |
Departure
| Time | 2026-04-22 00:30 |
|---|---|
| Airport | St. Petersburg Clearwater International Airport (KPIE) |
Arrival
| Time | 2026-04-22 00:44 |
|---|---|
| Airport | Lakeland Linder International Airport (KLAL) |
| Time | Latitude | Longitude | Altitude | Speed | Heading |
|---|---|---|---|---|---|
| 2026-04-22 00:25 | 27.91567 | -82.69275 | 8 ft | 0 kts | 175° |
| 2026-04-22 00:27 | 27.91566 | -82.69275 | 8 ft | 0 kts | 172° |
| 2026-04-22 00:28 | 27.91555 | -82.69282 | 14 ft | 4 kts | 150° |
| 2026-04-22 00:28 | 27.91520 | -82.69295 | 31 ft | 7 kts | 119° |
| 2026-04-22 00:28 | 27.91488 | -82.69250 | 173 ft | 10 kts | 82° |
| 2026-04-22 00:28 | 27.91456 | -82.69175 | 387 ft | 18 kts | 81° |
| 2026-04-22 00:29 | 27.91441 | -82.68954 | 624 ft | 45 kts | 71° |
| 2026-04-22 00:29 | 27.91548 | -82.68642 | 738 ft | 46 kts | 74° |
| 2026-04-22 00:29 | 27.91613 | -82.68306 | 792 ft | 41 kts | 90° |
| 2026-04-22 00:29 | 27.91638 | -82.67982 | 824 ft | 40 kts | 88° |
| 2026-04-22 00:30 | 27.91659 | -82.67666 | 834 ft | 40 kts | 86° |
| 2026-04-22 00:30 | 27.91686 | -82.67345 | 842 ft | 40 kts | 85° |
| 2026-04-22 00:30 | 27.91721 | -82.67032 | 842 ft | 40 kts | 85° |
| 2026-04-22 00:30 | 27.91760 | -82.66672 | 836 ft | 52 kts | 85° |
| 2026-04-22 00:31 | 27.91812 | -82.66157 | 828 ft | 79 kts | 85° |
| 2026-04-22 00:31 | 27.91883 | -82.65441 | 655 ft | 106 kts | 88° |
| 2026-04-22 00:31 | 27.91776 | -82.64552 | 498 ft | 111 kts | 97° |
| 2026-04-22 00:31 | 27.91650 | -82.63753 | 311 ft | 97 kts | 98° |
| 2026-04-22 00:32 | 27.91530 | -82.63008 | 261 ft | 94 kts | 98° |
| 2026-04-22 00:32 | 27.91565 | -82.62275 | 253 ft | 94 kts | 85° |
| 2026-04-22 00:32 | 27.91694 | -82.61540 | 249 ft | 96 kts | 75° |
| 2026-04-22 00:32 | 27.91956 | -82.60829 | 250 ft | 97 kts | 62° |
| 2026-04-22 00:33 | 27.92319 | -82.60177 | 256 ft | 95 kts | 61° |
| 2026-04-22 00:33 | 27.92588 | -82.59594 | 259 ft | 70 kts | 71° |
| 2026-04-22 00:33 | 27.92753 | -82.59186 | 242 ft | 46 kts | 73° |
| 2026-04-22 00:33 | 27.92906 | -82.58855 | 232 ft | 51 kts | 71° |
| 2026-04-22 00:34 | 27.93066 | -82.58450 | 246 ft | 59 kts | 71° |
| 2026-04-22 00:34 | 27.93230 | -82.58013 | 247 ft | 59 kts | 71° |
| 2026-04-22 00:34 | 27.93392 | -82.57596 | 246 ft | 58 kts | 72° |
| 2026-04-22 00:34 | 27.93559 | -82.57165 | 247 ft | 58 kts | 71° |
| 2026-04-22 00:35 | 27.93723 | -82.56744 | 403 ft | 58 kts | 71° |
| 2026-04-22 00:35 | 27.93883 | -82.56326 | 479 ft | 57 kts | 72° |
| 2026-04-22 00:35 | 27.94045 | -82.55917 | 518 ft | 57 kts | 71° |
| 2026-04-22 00:35 | 27.94214 | -82.55508 | 534 ft | 56 kts | 71° |
| 2026-04-22 00:36 | 27.94378 | -82.55104 | 541 ft | 57 kts | 72° |
| 2026-04-22 00:36 | 27.94497 | -82.54668 | 535 ft | 63 kts | 81° |
| 2026-04-22 00:36 | 27.94629 | -82.54086 | 527 ft | 90 kts | 79° |
| 2026-04-22 00:36 | 27.94786 | -82.53316 | 545 ft | 106 kts | 78° |
| 2026-04-22 00:37 | 27.94956 | -82.52508 | 554 ft | 107 kts | 78° |
| 2026-04-22 00:37 | 27.95129 | -82.51691 | 550 ft | 106 kts | 78° |
| 2026-04-22 00:37 | 27.95298 | -82.50880 | 549 ft | 107 kts | 78° |
| 2026-04-22 00:37 | 27.95471 | -82.50049 | 535 ft | 109 kts | 79° |
| 2026-04-22 00:38 | 27.95649 | -82.49139 | 538 ft | 130 kts | 79° |
| 2026-04-22 00:38 | 27.95864 | -82.48100 | 548 ft | 138 kts | 78° |
| 2026-04-22 00:38 | 27.96089 | -82.47021 | 542 ft | 144 kts | 78° |
| 2026-04-22 00:38 | 27.96321 | -82.45901 | 547 ft | 148 kts | 78° |
| 2026-04-22 00:39 | 27.96549 | -82.44771 | 705 ft | 149 kts | 79° |
| 2026-04-22 00:39 | 27.96784 | -82.43623 | 787 ft | 149 kts | 78° |
| 2026-04-22 00:39 | 27.97022 | -82.42499 | 825 ft | 147 kts | 78° |
| 2026-04-22 00:39 | 27.97261 | -82.41364 | 840 ft | 147 kts | 78° |
| 2026-04-22 00:40 | 27.97494 | -82.40246 | 850 ft | 147 kts | 78° |
| 2026-04-22 00:40 | 27.97728 | -82.39112 | 853 ft | 146 kts | 78° |
| 2026-04-22 00:40 | 27.97958 | -82.38004 | 855 ft | 146 kts | 78° |
| 2026-04-22 00:40 | 27.98190 | -82.36887 | 856 ft | 146 kts | 78° |
| 2026-04-22 00:41 | 27.98423 | -82.35768 | 860 ft | 146 kts | 78° |
| 2026-04-22 00:41 | 27.98648 | -82.34675 | 852 ft | 148 kts | 80° |
| 2026-04-22 00:41 | 27.98870 | -82.33582 | 869 ft | 148 kts | 79° |
| 2026-04-22 00:41 | 27.99091 | -82.32504 | 868 ft | 147 kts | 79° |
| 2026-04-22 00:42 | 27.99245 | -82.31753 | 865 ft | 147 kts | 79° |
| 2026-04-22 00:42 | 27.99489 | -82.30289 | 867 ft | 147 kts | 88° |
| 2026-04-22 00:42 | 27.99501 | -82.29140 | 869 ft | 147 kts | 90° |
| 2026-04-22 00:42 | 27.99493 | -82.27972 | 869 ft | 147 kts | 91° |
| 2026-04-22 00:43 | 27.99481 | -82.26807 | 871 ft | 146 kts | 91° |
| 2026-04-22 00:43 | 27.99333 | -82.25668 | 871 ft | 146 kts | 100° |
| 2026-04-22 00:43 | 27.99129 | -82.24548 | 871 ft | 146 kts | 101° |
| 2026-04-22 00:43 | 27.98930 | -82.23461 | 900 ft | 128 kts | 99° |
| 2026-04-22 00:44 | 27.98766 | -82.22566 | 899 ft | 103 kts | 100° |
| 2026-04-22 00:44 | 27.98632 | -82.21879 | 890 ft | 76 kts | 101° |
| 2026-04-22 00:44 | 27.98536 | -82.21386 | 873 ft | 53 kts | 101° |
| 2026-04-22 00:44 | 27.98467 | -82.21010 | 867 ft | 45 kts | 101° |
| 2026-04-22 00:45 | 27.98398 | -82.20657 | 869 ft | 46 kts | 101° |
| 2026-04-22 00:45 | 27.98321 | -82.20297 | 873 ft | 47 kts | 101° |
| 2026-04-22 00:45 | 27.98240 | -82.19923 | 876 ft | 48 kts | 101° |
| 2026-04-22 00:45 | 27.98160 | -82.19556 | 876 ft | 48 kts | 101° |
| 2026-04-22 00:46 | 27.98080 | -82.19188 | 876 ft | 47 kts | 100° |
| 2026-04-22 00:46 | 27.98000 | -82.18825 | 877 ft | 47 kts | 101° |
| 2026-04-22 00:46 | 27.97925 | -82.18459 | 877 ft | 47 kts | 101° |
| 2026-04-22 00:46 | 27.97841 | -82.18056 | 864 ft | 64 kts | 99° |
| 2026-04-22 00:47 | 27.97718 | -82.17454 | 860 ft | 91 kts | 102° |
| 2026-04-22 00:47 | 27.97562 | -82.16668 | 868 ft | 113 kts | 100° |
| 2026-04-22 00:47 | 27.97395 | -82.15772 | 876 ft | 119 kts | 100° |
| 2026-04-22 00:47 | 27.97330 | -82.14785 | 871 ft | 130 kts | 91° |
| 2026-04-22 00:48 | 27.97330 | -82.13734 | 874 ft | 137 kts | 90° |
| 2026-04-22 00:48 | 27.97334 | -82.12624 | 871 ft | 143 kts | 90° |
| 2026-04-22 00:48 | 27.97338 | -82.11485 | 880 ft | 147 kts | 90° |
| 2026-04-22 00:48 | 27.97340 | -82.10317 | 883 ft | 146 kts | 90° |
| 2026-04-22 00:49 | 27.97346 | -82.09193 | 915 ft | 133 kts | 89° |
| 2026-04-22 00:49 | 27.97353 | -82.08250 | 908 ft | 108 kts | 90° |
| 2026-04-22 00:49 | 27.97351 | -82.07497 | 899 ft | 82 kts | 90° |
| 2026-04-22 00:49 | 27.97354 | -82.06957 | 890 ft | 54 kts | 91° |
| 2026-04-22 00:50 | 27.97368 | -82.06637 | 872 ft | 30 kts | 92° |
| 2026-04-22 00:50 | 27.97392 | -82.06442 | 870 ft | 21 kts | 91° |
| 2026-04-22 00:50 | 27.97401 | -82.06263 | 864 ft | 29 kts | 90° |
| 2026-04-22 00:50 | 27.97446 | -82.05909 | 872 ft | 59 kts | 85° |
| 2026-04-22 00:51 | 27.97617 | -82.05427 | 898 ft | 66 kts | 66° |
| 2026-04-22 00:51 | 27.97843 | -82.05006 | 770 ft | 54 kts | 64° |
| 2026-04-22 00:51 | 27.97945 | -82.04656 | 712 ft | 44 kts | 91° |
| 2026-04-22 00:51 | 27.97925 | -82.04282 | 724 ft | 52 kts | 110° |
| 2026-04-22 00:52 | 27.97808 | -82.03841 | 673 ft | 68 kts | 99° |
| 2026-04-22 00:52 | 27.97771 | -82.03256 | 605 ft | 77 kts | 86° |
| 2026-04-22 00:52 | 27.97843 | -82.02724 | 490 ft | 62 kts | 79° |
| 2026-04-22 00:52 | 27.97909 | -82.02314 | 444 ft | 47 kts | 71° |
| 2026-04-22 00:53 | 27.98013 | -82.01997 | 397 ft | 34 kts | 59° |
| 2026-04-22 00:53 | 27.98122 | -82.01738 | 351 ft | 36 kts | 42° |
| 2026-04-22 00:53 | 27.98243 | -82.01505 | 342 ft | 21 kts | 57° |
| 2026-04-22 00:53 | 27.98232 | -82.01360 | 275 ft | 23 kts | 40° |
| 2026-04-22 00:54 | 27.98311 | -82.01238 | 272 ft | 21 kts | 14° |
| 2026-04-22 00:54 | 27.98453 | -82.01208 | 192 ft | 18 kts | 335° |
| 2026-04-22 00:54 | 27.98484 | -82.01210 | 148 ft | 1 kts | 330° |
| 2026-04-22 00:54 | 27.98494 | -82.01211 | 142 ft | 0 kts | 328° |
| 2026-04-22 00:55 | 27.98499 | -82.01211 | 139 ft | 0 kts | 332° |
| 2026-04-22 00:55 | 27.98503 | -82.01214 | 139 ft | 0 kts | 336° |